sensor_id;sensor_type;location;lat;lon;timestamp;temperature;humidity
6052;DHT22;3054;51.204;4.430;2022-07-22T00:02:22;20.49;68.08
6052;DHT22;3054;51.204;4.430;2022-07-22T00:04:49;20.48;68.16
6052;DHT22;3054;51.204;4.430;2022-07-22T00:07:16;20.47;68.20
6052;DHT22;3054;51.204;4.430;2022-07-22T00:09:43;20.47;68.27
6052;DHT22;3054;51.204;4.430;2022-07-22T00:12:11;20.45;68.35
6052;DHT22;3054;51.204;4.430;2022-07-22T00:14:38;20.43;68.41
6052;DHT22;3054;51.204;4.430;2022-07-22T00:17:05;20.42;68.46
6052;DHT22;3054;51.204;4.430;2022-07-22T00:19:33;20.40;68.54
6052;DHT22;3054;51.204;4.430;2022-07-22T00:22:00;20.40;68.59
6052;DHT22;3054;51.204;4.430;2022-07-22T00:24:27;20.40;68.62
6052;DHT22;3054;51.204;4.430;2022-07-22T00:26:54;20.37;68.68
6052;DHT22;3054;51.204;4.430;2022-07-22T00:29:23;20.34;68.75
6052;DHT22;3054;51.204;4.430;2022-07-22T00:31:50;20.33;68.78
6052;DHT22;3054;51.204;4.430;2022-07-22T00:34:17;20.34;68.78
6052;DHT22;3054;51.204;4.430;2022-07-22T00:36:44;20.32;68.78
6052;DHT22;3054;51.204;4.430;2022-07-22T00:39:11;20.32;68.76
6052;DHT22;3054;51.204;4.430;2022-07-22T00:41:38;20.32;68.75
6052;DHT22;3054;51.204;4.430;2022-07-22T00:44:06;20.28;68.84
6052;DHT22;3054;51.204;4.430;2022-07-22T00:46:36;20.29;68.84
6052;DHT22;3054;51.204;4.430;2022-07-22T00:49:04;20.29;68.80
6052;DHT22;3054;51.204;4.430;2022-07-22T00:51:32;20.26;68.82
6052;DHT22;3054;51.204;4.430;2022-07-22T00:53:59;20.25;68.86
6052;DHT22;3054;51.204;4.430;2022-07-22T00:56:28;20.21;68.93
6052;DHT22;3054;51.204;4.430;2022-07-22T00:59:00;20.19;69.00
6052;DHT22;3054;51.204;4.430;2022-07-22T01:01:27;20.17;69.00
6052;DHT22;3054;51.204;4.430;2022-07-22T01:03:56;20.15;69.10
6052;DHT22;3054;51.204;4.430;2022-07-22T01:06:23;20.15;69.10
6052;DHT22;3054;51.204;4.430;2022-07-22T01:08:50;20.16;69.08
6052;DHT22;3054;51.204;4.430;2022-07-22T01:11:18;20.16;69.17
6052;DHT22;3054;51.204;4.430;2022-07-22T01:13:46;20.13;69.22
6052;DHT22;3054;51.204;4.430;2022-07-22T01:16:15;20.14;69.21
6052;DHT22;3054;51.204;4.430;2022-07-22T01:18:43;20.12;69.29
6052;DHT22;3054;51.204;4.430;2022-07-22T01:21:12;20.12;69.32
6052;DHT22;3054;51.204;4.430;2022-07-22T01:23:40;20.11;69.33
6052;DHT22;3054;51.204;4.430;2022-07-22T01:26:07;20.09;69.39
6052;DHT22;3054;51.204;4.430;2022-07-22T01:28:34;20.10;69.44
6052;DHT22;3054;51.204;4.430;2022-07-22T01:31:01;20.06;69.52
6052;DHT22;3054;51.204;4.430;2022-07-22T01:33:28;20.05;69.57
6052;DHT22;3054;51.204;4.430;2022-07-22T01:35:55;20.04;69.58
6052;DHT22;3054;51.204;4.430;2022-07-22T01:38:23;20.02;69.68
6052;DHT22;3054;51.204;4.430;2022-07-22T01:40:50;20.00;69.70
6052;DHT22;3054;51.204;4.430;2022-07-22T01:43:17;19.99;69.75
6052;DHT22;3054;51.204;4.430;2022-07-22T01:45:49;19.95;69.87
6052;DHT22;3054;51.204;4.430;2022-07-22T01:48:16;19.95;69.85
6052;DHT22;3054;51.204;4.430;2022-07-22T01:50:44;19.92;69.91
6052;DHT22;3054;51.204;4.430;2022-07-22T01:53:11;19.90;70.00
6052;DHT22;3054;51.204;4.430;2022-07-22T01:55:40;19.91;70.03
6052;DHT22;3054;51.204;4.430;2022-07-22T01:58:07;19.90;70.00
6052;DHT22;3054;51.204;4.430;2022-07-22T02:00:34;19.88;70.02
6052;DHT22;3054;51.204;4.430;2022-07-22T02:03:01;19.85;70.10
6052;DHT22;3054;51.204;4.430;2022-07-22T02:05:28;19.85;70.15
6052;DHT22;3054;51.204;4.430;2022-07-22T02:08:00;19.86;70.13
6052;DHT22;3054;51.204;4.430;2022-07-22T02:10:27;19.84;70.09
6052;DHT22;3054;51.204;4.430;2022-07-22T02:12:56;19.77;70.23
6052;DHT22;3054;51.204;4.430;2022-07-22T02:15:23;19.75;70.32
6052;DHT22;3054;51.204;4.430;2022-07-22T02:17:50;19.74;70.35
6052;DHT22;3054;51.204;4.430;2022-07-22T02:20:17;19.75;70.32
6052;DHT22;3054;51.204;4.430;2022-07-22T02:22:44;19.75;70.32
6052;DHT22;3054;51.204;4.430;2022-07-22T02:25:11;19.75;70.35
6052;DHT22;3054;51.204;4.430;2022-07-22T02:27:39;19.74;70.39
6052;DHT22;3054;51.204;4.430;2022-07-22T02:30:09;19.74;70.52
6052;DHT22;3054;51.204;4.430;2022-07-22T02:32:36;19.71;70.51
6052;DHT22;3054;51.204;4.430;2022-07-22T02:35:03;19.68;70.59
6052;DHT22;3054;51.204;4.430;2022-07-22T02:37:31;19.66;70.71
6052;DHT22;3054;51.204;4.430;2022-07-22T02:39:58;19.65;70.77
6052;DHT22;3054;51.204;4.430;2022-07-22T02:42:25;19.61;70.91
6052;DHT22;3054;51.204;4.430;2022-07-22T02:44:52;19.60;70.97
6052;DHT22;3054;51.204;4.430;2022-07-22T02:47:20;19.58;71.03
6052;DHT22;3054;51.204;4.430;2022-07-22T02:49:47;19.57;71.12
6052;DHT22;3054;51.204;4.430;2022-07-22T02:52:14;19.56;71.10
6052;DHT22;3054;51.204;4.430;2022-07-22T02:54:41;19.54;71.15
6052;DHT22;3054;51.204;4.430;2022-07-22T02:57:08;19.52;71.22
6052;DHT22;3054;51.204;4.430;2022-07-22T02:59:35;19.50;71.35
6052;DHT22;3054;51.204;4.430;2022-07-22T03:02:03;19.48;71.34
6052;DHT22;3054;51.204;4.430;2022-07-22T03:04:31;19.47;71.43
6052;DHT22;3054;51.204;4.430;2022-07-22T03:06:58;19.46;71.48
6052;DHT22;3054;51.204;4.430;2022-07-22T03:09:25;19.46;71.49
6052;DHT22;3054;51.204;4.430;2022-07-22T03:11:52;19.45;71.52
6052;DHT22;3054;51.204;4.430;2022-07-22T03:14:19;19.42;71.64
6052;DHT22;3054;51.204;4.430;2022-07-22T03:16:47;19.40;71.73
6052;DHT22;3054;51.204;4.430;2022-07-22T03:19:14;19.41;71.75
6052;DHT22;3054;51.204;4.430;2022-07-22T03:21:42;19.39;71.80
6052;DHT22;3054;51.204;4.430;2022-07-22T03:24:09;19.39;71.84
6052;DHT22;3054;51.204;4.430;2022-07-22T03:26:36;19.37;71.90
6052;DHT22;3054;51.204;4.430;2022-07-22T03:29:03;19.36;71.96
6052;DHT22;3054;51.204;4.430;2022-07-22T03:31:31;19.36;71.97
6052;DHT22;3054;51.204;4.430;2022-07-22T03:33:57;19.36;71.93
6052;DHT22;3054;51.204;4.430;2022-07-22T03:36:26;19.35;71.96
6052;DHT22;3054;51.204;4.430;2022-07-22T03:38:56;19.36;71.96
6052;DHT22;3054;51.204;4.430;2022-07-22T03:41:23;19.36;71.96
6052;DHT22;3054;51.204;4.430;2022-07-22T03:43:50;19.35;71.99
6052;DHT22;3054;51.204;4.430;2022-07-22T03:46:17;19.35;71.98
6052;DHT22;3054;51.204;4.430;2022-07-22T03:48:44;19.33;71.97
6052;DHT22;3054;51.204;4.430;2022-07-22T03:51:11;19.33;72.02
6052;DHT22;3054;51.204;4.430;2022-07-22T03:53:38;19.31;72.01
6052;DHT22;3054;51.204;4.430;2022-07-22T03:56:07;19.31;72.10
6052;DHT22;3054;51.204;4.430;2022-07-22T03:58:34;19.32;72.05
6052;DHT22;3054;51.204;4.430;2022-07-22T04:01:01;19.31;72.09
6052;DHT22;3054;51.204;4.430;2022-07-22T04:03:28;19.30;72.11
6052;DHT22;3054;51.204;4.430;2022-07-22T04:05:55;19.29;72.15
6052;DHT22;3054;51.204;4.430;2022-07-22T04:08:22;19.28;72.18
6052;DHT22;3054;51.204;4.430;2022-07-22T04:10:49;19.28;72.21
6052;DHT22;3054;51.204;4.430;2022-07-22T04:13:17;19.30;72.24
6052;DHT22;3054;51.204;4.430;2022-07-22T04:15:44;19.28;72.27
6052;DHT22;3054;51.204;4.430;2022-07-22T04:18:11;19.28;72.25
6052;DHT22;3054;51.204;4.430;2022-07-22T04:20:37;19.29;72.22
6052;DHT22;3054;51.204;4.430;2022-07-22T04:23:04;19.26;72.30
6052;DHT22;3054;51.204;4.430;2022-07-22T04:25:34;19.27;72.37
6052;DHT22;3054;51.204;4.430;2022-07-22T04:28:01;19.29;72.33
6052;DHT22;3054;51.204;4.430;2022-07-22T04:30:29;19.30;72.34
6052;DHT22;3054;51.204;4.430;2022-07-22T04:32:57;19.29;72.41
6052;DHT22;3054;51.204;4.430;2022-07-22T04:35:24;19.33;72.37
6052;DHT22;3054;51.204;4.430;2022-07-22T04:37:51;19.35;72.36
6052;DHT22;3054;51.204;4.430;2022-07-22T04:40:18;19.37;72.37
6052;DHT22;3054;51.204;4.430;2022-07-22T04:42:45;19.38;72.31
6052;DHT22;3054;51.204;4.430;2022-07-22T04:45:12;19.38;72.32
6052;DHT22;3054;51.204;4.430;2022-07-22T04:47:40;19.40;72.24
6052;DHT22;3054;51.204;4.430;2022-07-22T04:50:08;19.43;72.22
6052;DHT22;3054;51.204;4.430;2022-07-22T04:52:35;19.46;72.10
6052;DHT22;3054;51.204;4.430;2022-07-22T04:55:03;19.53;71.99
6052;DHT22;3054;51.204;4.430;2022-07-22T04:57:30;19.59;71.84
6052;DHT22;3054;51.204;4.430;2022-07-22T04:59:57;19.66;71.69
6052;DHT22;3054;51.204;4.430;2022-07-22T05:02:24;19.74;71.51
6052;DHT22;3054;51.204;4.430;2022-07-22T05:04:52;19.82;71.31
6052;DHT22;3054;51.204;4.430;2022-07-22T05:07:19;19.90;71.13
6052;DHT22;3054;51.204;4.430;2022-07-22T05:09:46;19.94;71.11
6052;DHT22;3054;51.204;4.430;2022-07-22T05:12:12;20.00;70.95
6052;DHT22;3054;51.204;4.430;2022-07-22T05:14:39;20.07;70.65
6052;DHT22;3054;51.204;4.430;2022-07-22T05:17:09;20.11;70.53
6052;DHT22;3054;51.204;4.430;2022-07-22T05:19:37;20.20;70.32
6052;DHT22;3054;51.204;4.430;2022-07-22T05:22:06;20.31;70.06
6052;DHT22;3054;51.204;4.430;2022-07-22T05:24:33;20.42;69.74
6052;DHT22;3054;51.204;4.430;2022-07-22T05:27:01;20.55;69.37
6052;DHT22;3054;51.204;4.430;2022-07-22T05:29:28;20.65;69.04
6052;DHT22;3054;51.204;4.430;2022-07-22T05:31:55;20.64;68.95
6052;DHT22;3054;51.204;4.430;2022-07-22T05:34:22;20.75;68.68
6052;DHT22;3054;51.204;4.430;2022-07-22T05:36:49;20.84;68.39
6052;DHT22;3054;51.204;4.430;2022-07-22T05:39:18;20.93;68.13
6052;DHT22;3054;51.204;4.430;2022-07-22T05:41:45;20.99;67.94
6052;DHT22;3054;51.204;4.430;2022-07-22T05:44:12;20.96;67.89
6052;DHT22;3054;51.204;4.430;2022-07-22T05:46:39;20.95;67.83
6052;DHT22;3054;51.204;4.430;2022-07-22T05:49:06;20.99;67.62
6052;DHT22;3054;51.204;4.430;2022-07-22T05:51:33;21.07;67.31
6052;DHT22;3054;51.204;4.430;2022-07-22T05:54:01;21.14;67.06
6052;DHT22;3054;51.204;4.430;2022-07-22T05:56:33;21.24;66.62
6052;DHT22;3054;51.204;4.430;2022-07-22T05:59:02;21.31;66.24
6052;DHT22;3054;51.204;4.430;2022-07-22T06:01:29;21.37;66.04
6052;DHT22;3054;51.204;4.430;2022-07-22T06:03:56;21.43;65.78
6052;DHT22;3054;51.204;4.430;2022-07-22T06:06:23;21.40;65.56
6052;DHT22;3054;51.204;4.430;2022-07-22T06:08:49;21.45;65.26
6052;DHT22;3054;51.204;4.430;2022-07-22T06:11:16;21.53;64.80
6052;DHT22;3054;51.204;4.430;2022-07-22T06:13:45;21.61;64.30
6052;DHT22;3054;51.204;4.430;2022-07-22T06:16:12;21.70;64.00
6052;DHT22;3054;51.204;4.430;2022-07-22T06:18:39;21.81;63.59
6052;DHT22;3054;51.204;4.430;2022-07-22T06:21:06;21.90;63.24
6052;DHT22;3054;51.204;4.430;2022-07-22T06:23:33;22.03;62.80
6052;DHT22;3054;51.204;4.430;2022-07-22T06:26:00;22.14;62.38
6052;DHT22;3054;51.204;4.430;2022-07-22T06:28:28;22.18;62.31
6052;DHT22;3054;51.204;4.430;2022-07-22T06:30:56;22.22;62.16
6052;DHT22;3054;51.204;4.430;2022-07-22T06:33:23;22.34;61.78
6052;DHT22;3054;51.204;4.430;2022-07-22T06:35:50;22.49;61.25
6052;DHT22;3054;51.204;4.430;2022-07-22T06:38:17;22.69;60.80
6052;DHT22;3054;51.204;4.430;2022-07-22T06:40:44;22.87;60.32
6052;DHT22;3054;51.204;4.430;2022-07-22T06:43:11;23.00;59.91
6052;DHT22;3054;51.204;4.430;2022-07-22T06:45:38;22.97;59.74
6052;DHT22;3054;51.204;4.430;2022-07-22T06:48:06;22.94;59.75
6052;DHT22;3054;51.204;4.430;2022-07-22T06:50:33;22.95;59.72
6052;DHT22;3054;51.204;4.430;2022-07-22T06:53:00;23.01;59.48
6052;DHT22;3054;51.204;4.430;2022-07-22T06:55:27;23.17;59.09
6052;DHT22;3054;51.204;4.430;2022-07-22T06:57:54;23.29;58.76
6052;DHT22;3054;51.204;4.430;2022-07-22T07:00:22;23.32;58.37
6052;DHT22;3054;51.204;4.430;2022-07-22T07:02:49;23.26;58.36
6052;DHT22;3054;51.204;4.430;2022-07-22T07:05:18;23.28;58.30
6052;DHT22;3054;51.204;4.430;2022-07-22T07:07:45;23.40;57.97
6052;DHT22;3054;51.204;4.430;2022-07-22T07:10:12;23.41;57.86
6052;DHT22;3054;51.204;4.430;2022-07-22T07:12:41;23.51;57.60
6052;DHT22;3054;51.204;4.430;2022-07-22T07:15:08;23.66;57.32
6052;DHT22;3054;51.204;4.430;2022-07-22T07:17:35;23.76;56.77
6052;DHT22;3054;51.204;4.430;2022-07-22T07:20:03;23.79;56.55
6052;DHT22;3054;51.204;4.430;2022-07-22T07:22:32;23.84;56.26
6052;DHT22;3054;51.204;4.430;2022-07-22T07:25:02;23.81;56.07
6052;DHT22;3054;51.204;4.430;2022-07-22T07:27:29;23.89;55.62
6052;DHT22;3054;51.204;4.430;2022-07-22T07:29:56;23.79;55.65
6052;DHT22;3054;51.204;4.430;2022-07-22T07:32:23;23.92;55.11
6052;DHT22;3054;51.204;4.430;2022-07-22T07:34:50;24.06;54.71
6052;DHT22;3054;51.204;4.430;2022-07-22T07:37:16;24.35;53.79
6052;DHT22;3054;51.204;4.430;2022-07-22T07:39:45;24.39;53.61
6052;DHT22;3054;51.204;4.430;2022-07-22T07:42:12;24.48;53.34
6052;DHT22;3054;51.204;4.430;2022-07-22T07:44:39;24.40;53.27
6052;DHT22;3054;51.204;4.430;2022-07-22T07:47:06;24.34;53.38
6052;DHT22;3054;51.204;4.430;2022-07-22T07:49:33;24.49;53.05
6052;DHT22;3054;51.204;4.430;2022-07-22T07:52:00;24.84;52.40
6052;DHT22;3054;51.204;4.430;2022-07-22T07:54:27;25.24;51.53
6052;DHT22;3054;51.204;4.430;2022-07-22T07:56:55;25.01;51.48
6052;DHT22;3054;51.204;4.430;2022-07-22T07:59:22;25.05;51.28
6052;DHT22;3054;51.204;4.430;2022-07-22T08:01:49;24.91;51.35
6052;DHT22;3054;51.204;4.430;2022-07-22T08:04:16;24.79;51.50
6052;DHT22;3054;51.204;4.430;2022-07-22T08:06:43;24.63;51.82
6052;DHT22;3054;51.204;4.430;2022-07-22T08:09:10;24.70;51.66
6052;DHT22;3054;51.204;4.430;2022-07-22T08:11:37;24.76;51.44
6052;DHT22;3054;51.204;4.430;2022-07-22T08:14:05;24.85;51.24
6052;DHT22;3054;51.204;4.430;2022-07-22T08:16:32;24.93;50.89
6052;DHT22;3054;51.204;4.430;2022-07-22T08:18:59;24.95;50.79
6052;DHT22;3054;51.204;4.430;2022-07-22T08:21:26;25.01;50.71
6052;DHT22;3054;51.204;4.430;2022-07-22T08:23:53;24.98;50.66
6052;DHT22;3054;51.204;4.430;2022-07-22T08:26:20;25.33;49.95
6052;DHT22;3054;51.204;4.430;2022-07-22T08:28:47;25.33;49.80
6052;DHT22;3054;51.204;4.430;2022-07-22T08:31:15;25.45;49.45
6052;DHT22;3054;51.204;4.430;2022-07-22T08:33:43;25.50;49.43
6052;DHT22;3054;51.204;4.430;2022-07-22T08:36:10;25.36;49.60
6052;DHT22;3054;51.204;4.430;2022-07-22T08:38:37;25.28;49.69
6052;DHT22;3054;51.204;4.430;2022-07-22T08:41:04;25.61;49.10
6052;DHT22;3054;51.204;4.430;2022-07-22T08:43:35;25.90;48.57
6052;DHT22;3054;51.204;4.430;2022-07-22T08:46:02;26.18;48.15
6052;DHT22;3054;51.204;4.430;2022-07-22T08:48:31;26.43;47.47
6052;DHT22;3054;51.204;4.430;2022-07-22T08:50:58;26.48;47.33
6052;DHT22;3054;51.204;4.430;2022-07-22T08:53:25;26.46;47.25
6052;DHT22;3054;51.204;4.430;2022-07-22T08:55:52;26.39;47.19
6052;DHT22;3054;51.204;4.430;2022-07-22T08:58:19;26.60;46.84
6052;DHT22;3054;51.204;4.430;2022-07-22T09:01:04;27.02;46.13
6052;DHT22;3054;51.204;4.430;2022-07-22T09:03:32;27.24;45.44
6052;DHT22;3054;51.204;4.430;2022-07-22T09:06:00;27.53;45.12
6052;DHT22;3054;51.204;4.430;2022-07-22T09:08:27;28.34;43.77
6052;DHT22;3054;51.204;4.430;2022-07-22T09:10:55;29.02;42.46
6052;DHT22;3054;51.204;4.430;2022-07-22T09:13:23;29.76;41.10
6052;DHT22;3054;51.204;4.430;2022-07-22T09:15:52;30.83;39.50
6052;DHT22;3054;51.204;4.430;2022-07-22T09:18:20;32.33;37.40
6052;DHT22;3054;51.204;4.430;2022-07-22T09:20:48;32.98;36.84
6052;DHT22;3054;51.204;4.430;2022-07-22T09:23:17;33.78;35.17
6052;DHT22;3054;51.204;4.430;2022-07-22T09:25:48;33.80;34.80
6052;DHT22;3054;51.204;4.430;2022-07-22T09:28:17;33.42;34.92
6052;DHT22;3054;51.204;4.430;2022-07-22T09:30:50;33.14;35.25
6052;DHT22;3054;51.204;4.430;2022-07-22T09:33:17;33.31;35.31
6052;DHT22;3054;51.204;4.430;2022-07-22T09:35:46;33.61;34.66
6052;DHT22;3054;51.204;4.430;2022-07-22T09:38:15;34.00;33.49
6052;DHT22;3054;51.204;4.430;2022-07-22T09:40:44;36.63;31.57
6052;DHT22;3054;51.204;4.430;2022-07-22T09:43:12;38.66;29.05
6052;DHT22;3054;51.204;4.430;2022-07-22T09:45:45;40.75;27.09
6052;DHT22;3054;51.204;4.430;2022-07-22T09:48:13;42.50;24.97
6052;DHT22;3054;51.204;4.430;2022-07-22T09:50:41;40.85;24.64
6052;DHT22;3054;51.204;4.430;2022-07-22T09:53:08;39.67;26.00
6052;DHT22;3054;51.204;4.430;2022-07-22T09:55:38;38.92;28.54
6052;DHT22;3054;51.204;4.430;2022-07-22T09:58:06;42.41;26.41
6052;DHT22;3054;51.204;4.430;2022-07-22T10:00:35;46.20;22.77
6052;DHT22;3054;51.204;4.430;2022-07-22T10:03:05;48.13;20.97
6052;DHT22;3054;51.204;4.430;2022-07-22T10:05:34;47.90;16.38
6052;DHT22;3054;51.204;4.430;2022-07-22T10:08:03;42.20;21.89
6052;DHT22;3054;51.204;4.430;2022-07-22T10:10:32;41.70;24.71
6052;DHT22;3054;51.204;4.430;2022-07-22T10:13:01;43.92;21.18
6052;DHT22;3054;51.204;4.430;2022-07-22T10:15:30;45.13;22.53
6052;DHT22;3054;51.204;4.430;2022-07-22T10:17:59;41.44;21.62
6052;DHT22;3054;51.204;4.430;2022-07-22T10:20:28;40.55;23.95
6052;DHT22;3054;51.204;4.430;2022-07-22T10:22:56;43.34;19.63
6052;DHT22;3054;51.204;4.430;2022-07-22T10:25:25;41.51;22.21
6052;DHT22;3054;51.204;4.430;2022-07-22T10:27:55;43.16;23.51
6052;DHT22;3054;51.204;4.430;2022-07-22T10:30:25;45.21;19.35
6052;DHT22;3054;51.204;4.430;2022-07-22T10:33:06;45.33;19.86
6052;DHT22;3054;51.204;4.430;2022-07-22T10:35:35;45.50;19.57
6052;DHT22;3054;51.204;4.430;2022-07-22T10:38:05;45.35;19.25
6052;DHT22;3054;51.204;4.430;2022-07-22T10:40:46;44.02;19.30
6052;DHT22;3054;51.204;4.430;2022-07-22T10:43:14;41.69;20.76
6052;DHT22;3054;51.204;4.430;2022-07-22T10:45:46;39.00;23.92
6052;DHT22;3054;51.204;4.430;2022-07-22T10:48:17;37.88;24.94
6052;DHT22;3054;51.204;4.430;2022-07-22T10:53:44;39.82;22.88
6052;DHT22;3054;51.204;4.430;2022-07-22T10:56:20;39.03;23.49
6052;DHT22;3054;51.204;4.430;2022-07-22T10:58:51;38.15;24.46
6052;DHT22;3054;51.204;4.430;2022-07-22T11:01:22;37.41;25.23
6052;DHT22;3054;51.204;4.430;2022-07-22T11:03:50;36.84;25.81
6052;DHT22;3054;51.204;4.430;2022-07-22T11:06:23;35.98;26.62
6052;DHT22;3054;51.204;4.430;2022-07-22T11:08:52;35.25;27.47
6052;DHT22;3054;51.204;4.430;2022-07-22T11:11:31;35.00;27.82
6052;DHT22;3054;51.204;4.430;2022-07-22T11:13:59;34.67;28.36
6052;DHT22;3054;51.204;4.430;2022-07-22T11:16:28;34.67;28.40
6052;DHT22;3054;51.204;4.430;2022-07-22T11:18:56;34.32;28.83
6052;DHT22;3054;51.204;4.430;2022-07-22T11:21:25;34.26;29.11
6052;DHT22;3054;51.204;4.430;2022-07-22T11:23:53;34.09;29.35
6052;DHT22;3054;51.204;4.430;2022-07-22T11:26:25;33.80;29.80
6052;DHT22;3054;51.204;4.430;2022-07-22T11:28:52;33.37;30.33
6052;DHT22;3054;51.204;4.430;2022-07-22T11:31:19;33.07;30.85
6052;DHT22;3054;51.204;4.430;2022-07-22T11:33:47;33.03;30.91
6052;DHT22;3054;51.204;4.430;2022-07-22T11:36:16;33.09;31.03
6052;DHT22;3054;51.204;4.430;2022-07-22T11:38:46;33.75;30.53
6052;DHT22;3054;51.204;4.430;2022-07-22T11:41:14;34.71;29.53
6052;DHT22;3054;51.204;4.430;2022-07-22T11:43:43;35.42;28.81
6052;DHT22;3054;51.204;4.430;2022-07-22T11:46:10;35.65;28.22
6052;DHT22;3054;51.204;4.430;2022-07-22T11:48:38;35.70;28.39
6052;DHT22;3054;51.204;4.430;2022-07-22T11:51:07;36.14;27.81
6052;DHT22;3054;51.204;4.430;2022-07-22T11:53:36;35.38;28.50
6052;DHT22;3054;51.204;4.430;2022-07-22T11:56:05;34.67;29.57
6052;DHT22;3054;51.204;4.430;2022-07-22T11:58:37;34.07;30.42
6052;DHT22;3054;51.204;4.430;2022-07-22T12:01:05;33.53;31.13
6052;DHT22;3054;51.204;4.430;2022-07-22T12:03:33;33.15;31.73
6052;DHT22;3054;51.204;4.430;2022-07-22T12:06:01;32.69;32.19
6052;DHT22;3054;51.204;4.430;2022-07-22T12:08:30;32.31;32.75
6052;DHT22;3054;51.204;4.430;2022-07-22T12:10:59;31.78;33.38
6052;DHT22;3054;51.204;4.430;2022-07-22T12:13:30;31.35;34.13
6052;DHT22;3054;51.204;4.430;2022-07-22T12:15:57;31.12;34.45
6052;DHT22;3054;51.204;4.430;2022-07-22T12:18:26;30.69;35.06
6052;DHT22;3054;51.204;4.430;2022-07-22T12:20:56;30.48;35.46
6052;DHT22;3054;51.204;4.430;2022-07-22T12:23:25;30.23;35.95
6052;DHT22;3054;51.204;4.430;2022-07-22T12:25:57;30.22;36.18
6052;DHT22;3054;51.204;4.430;2022-07-22T12:28:24;30.21;36.15
6052;DHT22;3054;51.204;4.430;2022-07-22T12:30:55;29.96;36.59
6052;DHT22;3054;51.204;4.430;2022-07-22T12:33:22;29.74;37.00
6052;DHT22;3054;51.204;4.430;2022-07-22T12:36:01;29.56;37.46
6052;DHT22;3054;51.204;4.430;2022-07-22T12:38:28;29.34;37.84
6052;DHT22;3054;51.204;4.430;2022-07-22T12:40:57;29.39;37.88
6052;DHT22;3054;51.204;4.430;2022-07-22T12:43:44;29.35;38.01
6052;DHT22;3054;51.204;4.430;2022-07-22T12:46:11;29.42;37.95
6052;DHT22;3054;51.204;4.430;2022-07-22T12:48:48;29.42;38.02
6052;DHT22;3054;51.204;4.430;2022-07-22T12:51:16;29.29;38.31
6052;DHT22;3054;51.204;4.430;2022-07-22T12:53:43;29.34;38.27
6052;DHT22;3054;51.204;4.430;2022-07-22T12:56:11;29.31;38.32
6052;DHT22;3054;51.204;4.430;2022-07-22T12:58:38;29.44;38.20
6052;DHT22;3054;51.204;4.430;2022-07-22T13:01:09;29.53;38.12
6052;DHT22;3054;51.204;4.430;2022-07-22T13:03:36;29.61;38.07
6052;DHT22;3054;51.204;4.430;2022-07-22T13:06:04;29.65;38.12
6052;DHT22;3054;51.204;4.430;2022-07-22T13:08:32;29.53;38.30
6052;DHT22;3054;51.204;4.430;2022-07-22T13:10:59;29.37;38.54
6052;DHT22;3054;51.204;4.430;2022-07-22T13:13:28;29.23;38.86
6052;DHT22;3054;51.204;4.430;2022-07-22T13:15:55;29.29;38.88
6052;DHT22;3054;51.204;4.430;2022-07-22T13:18:22;29.39;38.90
6052;DHT22;3054;51.204;4.430;2022-07-22T13:20:49;29.35;38.96
6052;DHT22;3054;51.204;4.430;2022-07-22T13:23:16;29.29;39.07
6052;DHT22;3054;51.204;4.430;2022-07-22T13:25:43;29.32;39.20
6052;DHT22;3054;51.204;4.430;2022-07-22T13:28:10;29.37;39.23
6052;DHT22;3054;51.204;4.430;2022-07-22T13:30:38;29.30;39.23
6052;DHT22;3054;51.204;4.430;2022-07-22T13:33:05;29.20;39.33
6052;DHT22;3054;51.204;4.430;2022-07-22T13:35:32;29.14;39.52
6052;DHT22;3054;51.204;4.430;2022-07-22T13:37:59;29.12;39.52
6052;DHT22;3054;51.204;4.430;2022-07-22T13:40:26;29.03;39.60
6052;DHT22;3054;51.204;4.430;2022-07-22T13:42:53;29.00;39.62
6052;DHT22;3054;51.204;4.430;2022-07-22T13:45:20;28.90;39.77
6052;DHT22;3054;51.204;4.430;2022-07-22T13:47:49;28.89;39.94
6052;DHT22;3054;51.204;4.430;2022-07-22T13:50:15;29.01;39.82
6052;DHT22;3054;51.204;4.430;2022-07-22T13:52:43;29.03;39.84
6052;DHT22;3054;51.204;4.430;2022-07-22T13:55:12;28.99;39.88
6052;DHT22;3054;51.204;4.430;2022-07-22T13:57:40;28.89;40.02
6052;DHT22;3054;51.204;4.430;2022-07-22T14:00:08;28.85;40.14
6052;DHT22;3054;51.204;4.430;2022-07-22T14:02:37;28.87;40.23
6052;DHT22;3054;51.204;4.430;2022-07-22T14:05:06;28.86;40.25
6052;DHT22;3054;51.204;4.430;2022-07-22T14:07:33;28.83;40.29
6052;DHT22;3054;51.204;4.430;2022-07-22T14:10:00;28.77;40.30
6052;DHT22;3054;51.204;4.430;2022-07-22T14:12:27;28.60;40.61
6052;DHT22;3054;51.204;4.430;2022-07-22T14:14:54;28.48;40.84
6052;DHT22;3054;51.204;4.430;2022-07-22T14:17:21;28.33;41.00
6052;DHT22;3054;51.204;4.430;2022-07-22T14:19:48;28.16;41.27
6052;DHT22;3054;51.204;4.430;2022-07-22T14:22:17;28.16;41.29
6052;DHT22;3054;51.204;4.430;2022-07-22T14:24:44;28.19;41.22
6052;DHT22;3054;51.204;4.430;2022-07-22T14:27:11;28.28;41.35
6052;DHT22;3054;51.204;4.430;2022-07-22T14:29:39;28.34;41.34
6052;DHT22;3054;51.204;4.430;2022-07-22T14:32:06;28.33;41.25
6052;DHT22;3054;51.204;4.430;2022-07-22T14:34:33;28.19;41.39
6052;DHT22;3054;51.204;4.430;2022-07-22T14:37:02;28.05;41.62
6052;DHT22;3054;51.204;4.430;2022-07-22T14:39:31;28.02;41.67
6052;DHT22;3054;51.204;4.430;2022-07-22T14:41:58;28.03;41.68
6052;DHT22;3054;51.204;4.430;2022-07-22T14:44:25;28.18;41.59
6052;DHT22;3054;51.204;4.430;2022-07-22T14:46:52;28.32;41.36
6052;DHT22;3054;51.204;4.430;2022-07-22T14:49:19;28.40;41.20
6052;DHT22;3054;51.204;4.430;2022-07-22T14:51:46;28.37;41.25
6052;DHT22;3054;51.204;4.430;2022-07-22T14:54:13;28.25;41.44
6052;DHT22;3054;51.204;4.430;2022-07-22T14:56:41;28.18;41.62
6052;DHT22;3054;51.204;4.430;2022-07-22T14:59:08;28.01;41.88
6052;DHT22;3054;51.204;4.430;2022-07-22T15:01:35;27.99;41.97
6052;DHT22;3054;51.204;4.430;2022-07-22T15:04:02;27.87;42.14
6052;DHT22;3054;51.204;4.430;2022-07-22T15:06:29;27.84;42.39
6052;DHT22;3054;51.204;4.430;2022-07-22T15:08:56;27.85;42.42
6052;DHT22;3054;51.204;4.430;2022-07-22T15:11:23;27.85;42.60
6052;DHT22;3054;51.204;4.430;2022-07-22T15:13:52;27.88;42.66
6052;DHT22;3054;51.204;4.430;2022-07-22T15:16:18;27.87;42.65
6052;DHT22;3054;51.204;4.430;2022-07-22T15:18:45;27.83;42.69
6052;DHT22;3054;51.204;4.430;2022-07-22T15:21:13;27.85;42.64
6052;DHT22;3054;51.204;4.430;2022-07-22T15:23:39;27.80;42.68
6052;DHT22;3054;51.204;4.430;2022-07-22T15:26:06;27.71;42.79
6052;DHT22;3054;51.204;4.430;2022-07-22T15:28:34;27.68;42.87
6052;DHT22;3054;51.204;4.430;2022-07-22T15:31:04;27.66;42.90
6052;DHT22;3054;51.204;4.430;2022-07-22T15:33:32;27.55;42.97
6052;DHT22;3054;51.204;4.430;2022-07-22T15:35:59;27.39;43.24
6052;DHT22;3054;51.204;4.430;2022-07-22T15:38:26;27.35;43.26
6052;DHT22;3054;51.204;4.430;2022-07-22T15:40:53;27.37;43.22
6052;DHT22;3054;51.204;4.430;2022-07-22T15:43:20;27.41;43.12
6052;DHT22;3054;51.204;4.430;2022-07-22T15:45:47;27.40;43.09
6052;DHT22;3054;51.204;4.430;2022-07-22T15:48:15;27.37;43.14
6052;DHT22;3054;51.204;4.430;2022-07-22T15:50:42;27.45;43.16
6052;DHT22;3054;51.204;4.430;2022-07-22T15:53:09;27.53;43.13
6052;DHT22;3054;51.204;4.430;2022-07-22T15:55:36;27.59;43.07
6052;DHT22;3054;51.204;4.430;2022-07-22T15:58:04;27.56;43.06
6052;DHT22;3054;51.204;4.430;2022-07-22T16:00:49;27.50;43.09
6052;DHT22;3054;51.204;4.430;2022-07-22T16:03:17;27.40;43.19
6052;DHT22;3054;51.204;4.430;2022-07-22T16:05:44;27.32;43.30
6052;DHT22;3054;51.204;4.430;2022-07-22T16:08:11;27.25;43.43
6052;DHT22;3054;51.204;4.430;2022-07-22T16:10:38;27.22;43.53